Ventura — ZCDT2 — position and weather

sailwx.info

Track history (hours):
 
Tides and Currents Weather Stations Pressure Air Temp Water Temp Dewpoint Dewpoint Depression Visibility Wind Speed Wind Dir Waves Ship Positions

Ventura

Last reported at 2019-Sep-20 22:00 UTC. Time now 2019-Sep-21 00:40 UTC.
Position N 36°36' W 010°48'.

Length 289 m; draft 8.6 m.

Type: Passenger vessel. MMSI: 310562000.

Wind from 260 at 18 knots

Barometer 1013.0 mb
Air temperature 22.0 ° C
Visibility: greater than 10.8 NM
Dewpoint 20.5 ° C
Water temperature 22.1 ° C

Date/timePositionNaut miles runAvg speedWind from/ knotsBaromVisibWave heightAir tempDewpointWater temp
2019-Sep-20 22:00N 36°36' W 010°48'7424.7 260 / 181013.010.8 22.020.522.1
2019-Sep-20 19:00N 35°30' W 011°30'14916.6 260 / 141013.410.8 22.021.222.0
2019-Sep-20 10:00N 33°18' W 012°54'19819.9 240 / 61016.610.8 25.520.222.9
2019-Sep-20 00:01N 30°27' W 014°51'019.9
2019-Sep-20 00:00N 30°26' W 014°51'1020.1
2019-Sep-19 23:30N 30°18' W 014°57'1020.0
2019-Sep-19 22:59N 30°09' W 015°03'1120.0
2019-Sep-19 22:26N 29°59' W 015°09'3 6.2
2019-Sep-19 22:00N 30°00' W 015°06'12407.7 360 / 131018.410.8 22.518.623.0
2019-Sep-19 21:58N 29°51' W 015°14'919.8
2019-Sep-19 21:30N 29°43' W 015°19'3119.9
2019-Sep-19 19:57N 29°16' W 015°36'1320.2
2019-Sep-19 19:17N 29°04' W 015°44'620.2
2019-Sep-19 19:00N 28°59' W 015°47'1019.2
2019-Sep-19 18:30N 28°51' W 015°52'1019.0
2019-Sep-19 18:00N 28°42' W 015°58'918.4
2019-Sep-19 17:30N 28°35' W 016°03'815.3
2019-Sep-19 17:00N 28°28' W 016°08'510.5
2019-Sep-19 16:31N 28°29' W 016°14'1 1.0
2019-Sep-19 15:58N 28°29' W 016°14'0 0.0
2019-Sep-19 15:25N 28°29' W 016°14'0 0.0
2019-Sep-19 14:58N 28°29' W 016°14'0 0.0
2019-Sep-19 14:28N 28°29' W 016°14'0 0.0
2019-Sep-19 13:58N 28°29' W 016°14'0 0.0
2019-Sep-19 13:28N 28°29' W 016°14'0 0.0
2019-Sep-19 12:58N 28°29' W 016°14'0 0.0
2019-Sep-19 12:28N 28°29' W 016°14'0 0.0
2019-Sep-19 11:58N 28°29' W 016°14'0 0.0
2019-Sep-19 11:28N 28°29' W 016°14'0 0.0
2019-Sep-19 10:58N 28°29' W 016°14'0 0.0
2019-Sep-19 10:28N 28°29' W 016°14'0 0.0
2019-Sep-19 09:58N 28°29' W 016°14'0 0.0
2019-Sep-19 09:28N 28°29' W 016°14'0 0.0
2019-Sep-19 08:58N 28°29' W 016°14'0 0.0
2019-Sep-19 08:28N 28°29' W 016°14'0 0.0
2019-Sep-19 07:58N 28°29' W 016°14'0 0.0
2019-Sep-19 07:28N 28°29' W 016°14'0 0.0
2019-Sep-19 06:58N 28°29' W 016°14'0 0.7
2019-Sep-19 06:30N 28°29' W 016°14'2 3.7
2019-Sep-19 06:00N 28°28' W 016°13'510.6
2019-Sep-19 05:30N 28°29' W 016°07'611.1
2019-Sep-19 05:00N 28°34' W 016°04'611.0
2019-Sep-19 04:30N 28°39' W 016°07'1811.8
2019-Sep-19 02:56N 28°39' W 016°28'3 3.7
2019-Sep-19 02:00N 28°36' W 016°30'154 5.5 050 / 151017.010.8 22.518.623.0
2019-Sep-17 22:00N 31°06' W 017°12'245 9.8 060 / 41018.910.8 23.018.323.4
2019-Sep-16 21:00N 34°42' W 014°54'19918.1 320 / 101019.510.8 21.519.122.3
2019-Sep-16 10:00N 37°30' W 012°42'7119.0 300 / 81019.510.8 21.018.620.2
2019-Sep-16 06:15N 38°31' W 011°57'518.0
2019-Sep-16 05:58N 38°36' W 011°53'1318.4
2019-Sep-16 05:15N 38°47' W 011°44'1018.4
2019-Sep-16 04:43N 38°55' W 011°38'818.6
2019-Sep-16 04:19N 39°02' W 011°32'618.6
2019-Sep-16 04:00N 39°06' W 011°29'918.8
2019-Sep-16 03:30N 39°14' W 011°22'918.8
2019-Sep-16 03:00N 39°22' W 011°16'918.8
2019-Sep-16 02:30N 39°30' W 011°09'918.9
2019-Sep-16 02:00N 39°38' W 011°03'918.6
2019-Sep-16 01:31N 39°46' W 010°56'918.3
2019-Sep-16 01:00N 39°54' W 010°50'918.3
2019-Sep-16 00:30N 40°02' W 010°44'918.3
2019-Sep-16 00:00N 40°09' W 010°37'918.2
2019-Sep-15 23:30N 40°17' W 010°31'1818.6
2019-Sep-15 22:32N 40°33' W 010°19'2218.5
2019-Sep-15 21:20N 40°51' W 010°02'123 6.0
2019-Sep-15 01:00N 42°54' W 010°06'7324.2 330 / 351020.110.8 18.016.316.0
2019-Sep-14 22:00N 44°00' W 009°24'19018.3 050 / 221024.410.8 20.518.918.8
2019-Sep-14 11:35N 46°43' W 007°05'220.4
2019-Sep-14 11:30N 46°45' W 007°04'1220.7
2019-Sep-14 10:56N 46°55' W 006°55'920.5
2019-Sep-14 10:31N 47°02' W 006°48'1020.2
2019-Sep-14 10:00N 47°11' W 006°40'1020.6
2019-Sep-14 09:30N 47°20' W 006°32'1020.8
2019-Sep-14 09:01N 47°28' W 006°24'1121.8
2019-Sep-14 08:31N 47°38' W 006°15'1121.6
2019-Sep-14 08:00N 47°47' W 006°07'1121.7
2019-Sep-14 07:30N 47°56' W 005°58'1121.5
2019-Sep-14 07:00N 48°05' W 005°50'1021.2
2019-Sep-14 06:31N 48°14' W 005°41'1020.7
2019-Sep-14 06:00N 48°23' W 005°33'1020.2
2019-Sep-14 05:31N 48°31' W 005°24'1019.4
2019-Sep-14 05:01N 48°38' W 005°15'1019.0
2019-Sep-14 04:30N 48°45' W 005°04'918.8
2019-Sep-14 04:00N 48°51' W 004°53'918.7
2019-Sep-14 03:30N 48°56' W 004°41'1019.1
2019-Sep-14 03:00N 49°02' W 004°29'1019.7
2019-Sep-14 02:31N 49°08' W 004°18'1020.2
2019-Sep-14 02:00N 49°14' W 004°05'1020.7
2019-Sep-14 01:31N 49°20' W 003°53'1121.5
2019-Sep-14 01:01N 49°27' W 003°40'1121.7
2019-Sep-14 00:30N 49°35' W 003°28'1021.5
2019-Sep-14 00:01N 49°43' W 003°17'1121.9
2019-Sep-13 23:31N 49°50' W 003°05'1121.4
2019-Sep-13 23:01N 49°58' W 002°53'1120.9
2019-Sep-13 22:30N 50°01' W 002°37'1020.0
2019-Sep-13 22:01N 50°03' W 002°22'1019.1
2019-Sep-13 21:31N 50°10' W 002°11'918.4
2019-Sep-13 21:00N 50°13' W 001°58'917.9
2019-Sep-13 20:30N 50°18' W 001°45'917.8
2019-Sep-13 20:01N 50°22' W 001°33'917.6
2019-Sep-13 19:31N 50°26' W 001°21'917.2
2019-Sep-13 19:00N 50°29' W 001°08'815.9
2019-Sep-13 18:31N 50°35' W 000°60'714.8
2019-Sep-13 18:00N 50°42' W 000°58'713.4
2019-Sep-13 17:30N 50°45' W 001°07'715.0
2019-Sep-13 17:00N 50°48' W 001°19'4 8.7
2019-Sep-13 16:30N 50°52' W 001°21'3 4.7
2019-Sep-13 15:58N 50°53' W 001°24'0 0.0
2019-Sep-13 15:28N 50°53' W 001°24'0 0.0
2019-Sep-13 14:58N 50°53' W 001°24'0 0.0
2019-Sep-13 14:28N 50°53' W 001°24'0 0.0
2019-Sep-13 13:58N 50°53' W 001°24'0 0.0
2019-Sep-13 13:28N 50°53' W 001°24'0 0.0
2019-Sep-13 12:58N 50°53' W 001°24'0 0.0
2019-Sep-13 12:28N 50°53' W 001°24'0 0.0
2019-Sep-13 11:58N 50°53' W 001°24'0 0.0
2019-Sep-13 11:28N 50°53' W 001°24'0 0.0
2019-Sep-13 10:55N 50°53' W 001°24'0 0.0
2019-Sep-13 10:28N 50°53' W 001°24'0 0.0
2019-Sep-13 09:55N 50°53' W 001°24'0 0.0
2019-Sep-13 09:28N 50°53' W 001°24'0 0.0
2019-Sep-13 08:58N 50°53' W 001°24'0 0.0
2019-Sep-13 08:28N 50°53' W 001°24'0 0.0
2019-Sep-13 07:58N 50°53' W 001°24'0 0.0
2019-Sep-13 07:28N 50°53' W 001°24'0 0.0
2019-Sep-13 06:58N 50°53' W 001°24'0 0.0
2019-Sep-13 06:28N 50°53' W 001°24'0 0.0
2019-Sep-13 05:58N 50°53' W 001°24'0 0.5
2019-Sep-13 05:31N 50°53' W 001°24'3 6.0
2019-Sep-13 05:00N 50°51' W 001°21'4 8.4
2019-Sep-13 04:30N 50°47' W 001°19'612.9
2019-Sep-13 04:01N 50°46' W 001°09'815.2
2019-Sep-13 03:30N 50°42' W 000°58'612.0
2019-Sep-13 03:01N 50°37' W 000°53'1818.2
2019-Sep-13 02:01N 50°34' W 000°24'1620.7
2019-Sep-13 01:13N 50°33' E 000°01'721.7
2019-Sep-13 00:54N 50°34' E 000°12'821.5
2019-Sep-13 00:31N 50°37' E 000°25'1020.8
2019-Sep-13 00:01N 50°40' E 000°40'1020.0
2019-Sep-12 23:30N 50°45' E 000°54'1019.1
2019-Sep-12 23:00N 50°51' E 001°06'918.7
2019-Sep-12 22:31N 50°56' E 001°19'918.3
2019-Sep-12 22:00N 51°03' E 001°28'918.8
2019-Sep-12 21:31N 51°09' E 001°40'1019.1
2019-Sep-12 21:01N 51°16' E 001°49'1121.1
2019-Sep-12 20:30N 51°26' E 001°54'1121.7
2019-Sep-12 20:01N 51°36' E 002°00'1122.1
2019-Sep-12 19:30N 51°46' E 002°07'1121.8
2019-Sep-12 19:00N 51°57' E 002°12'1121.6
2019-Sep-12 18:30N 52°08' E 002°16'1121.2
2019-Sep-12 18:00N 52°18' E 002°19'1020.8
2019-Sep-12 17:30N 52°28' E 002°22'1020.2
2019-Sep-12 17:00N 52°38' E 002°25'1019.2
2019-Sep-12 16:30N 52°47' E 002°28'1019.4
2019-Sep-12 16:00N 52°57' E 002°31'919.0
2019-Sep-12 15:30N 53°06' E 002°35'1119.1
2019-Sep-12 14:57N 53°16' E 002°41'2019.1
2019-Sep-12 13:54N 53°35' E 002°52'1719.1
2019-Sep-12 12:59N 53°52' E 003°00'18719.5
2019-Sep-12 03:23N 56°58' E 003°39'919.9
2019-Sep-12 02:55N 57°07' E 003°41'919.8
2019-Sep-12 02:28N 57°16' E 003°42'818.5
2019-Sep-12 02:00N 57°25' E 003°43'171.1
2019-Sep-12 02:00N 57°24' E 003°42'918.1 240 / 171014.510.8 16.014.315.0
2019-Sep-12 01:30N 57°33' E 003°45'1019.7
2019-Sep-12 01:00N 57°43' E 003°47'1020.2
2019-Sep-12 00:30N 57°52' E 003°49'1020.1
2019-Sep-11 23:59N 58°03' E 003°51'1020.3
2019-Sep-11 23:30N 58°13' E 003°53'1020.1
2019-Sep-11 23:00N 58°23' E 003°54'1020.3
2019-Sep-11 22:30N 58°33' E 003°56'1020.5
2019-Sep-11 22:00N 58°43' E 003°58'1019.9
2019-Sep-11 21:30N 58°53' E 004°00'1019.7
2019-Sep-11 21:00N 59°03' E 004°02'1019.3
2019-Sep-11 20:29N 59°13' E 004°02'1019.2
2019-Sep-11 20:00N 59°22' E 004°02'918.9
2019-Sep-11 19:30N 59°32' E 004°02'918.6
2019-Sep-11 19:00N 59°41' E 004°02'918.4
2019-Sep-11 18:30N 59°50' E 004°02'918.7
2019-Sep-11 18:00N 59°59' E 004°02'918.7
2019-Sep-11 17:30N 60°09' E 004°01'918.8
2019-Sep-11 17:00N 60°18' E 004°01'12864.9
2019-Sep-11 17:00N 60°06' E 004°00'2142.5 270 / 301004.110.8 14.012.215.0
2019-Sep-11 16:30N 60°26' E 004°10'918.9
2019-Sep-11 16:00N 60°34' E 004°21'918.0
2019-Sep-11 15:30N 60°41' E 004°31'714.6
2019-Sep-11 15:00N 60°44' E 004°46'815.9
2019-Sep-11 14:30N 60°37' E 004°53'1019.3
2019-Sep-11 14:00N 60°28' E 005°01'713.7
2019-Sep-11 13:31N 60°23' E 005°11'4 7.4
2019-Sep-11 13:00N 60°23' E 005°18'0 0.0
2019-Sep-11 12:30N 60°23' E 005°18'0 0.0
2019-Sep-11 12:00N 60°23' E 005°18'0 0.0
2019-Sep-11 11:30N 60°23' E 005°18'0 0.0
2019-Sep-11 11:00N 60°23' E 005°18'0 0.0
2019-Sep-11 10:30N 60°23' E 005°18'0 0.0
2019-Sep-11 10:00N 60°23' E 005°18'0 0.0
2019-Sep-11 09:30N 60°23' E 005°18'0 0.0
2019-Sep-11 09:00N 60°23' E 005°18'0 0.0
2019-Sep-11 08:30N 60°23' E 005°18'0 0.0
2019-Sep-11 08:00N 60°23' E 005°18'0 0.0
2019-Sep-11 07:30N 60°23' E 005°18'0 0.0
2019-Sep-11 07:00N 60°23' E 005°18'0 0.0
2019-Sep-11 06:30N 60°23' E 005°18'0 0.0
2019-Sep-11 06:00N 60°23' E 005°18'0 0.0
2019-Sep-11 05:30N 60°23' E 005°18'0 0.0
2019-Sep-11 05:00N 60°23' E 005°18'0 0.4
2019-Sep-11 04:30N 60°24' E 005°18'1 2.4
2019-Sep-11 04:00N 60°24' E 005°16'4 8.0
2019-Sep-11 03:30N 60°24' E 005°08'713.7
2019-Sep-11 03:00N 60°29' E 004°59'714.9
2019-Sep-11 02:30N 60°36' E 004°54'713.5
2019-Sep-11 02:01N 60°42' E 004°47'815.9
2019-Sep-11 01:30N 60°46' E 004°33'714.6
2019-Sep-11 01:00N 60°52' E 004°25'715.0
2019-Sep-11 00:31N 60°59' E 004°21'815.2
2019-Sep-11 00:01N 61°07' E 004°16'815.5
2019-Sep-10 23:30N 61°14' E 004°11'815.8
2019-Sep-10 23:00N 61°22' E 004°07'815.4
2019-Sep-10 22:30N 61°29' E 004°05'815.6
2019-Sep-10 22:00N 61°37' E 004°04'  
Track history (hours):
 
Tides and Currents Weather Stations Pressure Air Temp Water Temp Dewpoint Dewpoint Depression Visibility Wind Speed Wind Dir Waves Ship Positions

Ventura

Last reported at 2019-Sep-20 22:00 UTC. Time now 2019-Sep-21 00:40 UTC.
Position N 36°36' W 010°48'.

Length 289 m; draft 8.6 m.

Type: Passenger vessel. MMSI: 310562000.

Wind from 260 at 18 knots

Barometer 1013.0 mb
Air temperature 22.0 ° C
Visibility: greater than 10.8 NM
Dewpoint 20.5 ° C
Water temperature 22.1 ° C

Date/timePositionNaut miles runAvg speedWind from/ knotsBaromVisibWave heightAir tempDewpointWater temp
2019-Sep-20 22:00N 36°36' W 010°48'7424.7 260 / 181013.010.8 22.020.522.1
2019-Sep-20 19:00N 35°30' W 011°30'14916.6 260 / 141013.410.8 22.021.222.0
2019-Sep-20 10:00N 33°18' W 012°54'19819.9 240 / 61016.610.8 25.520.222.9
2019-Sep-20 00:01N 30°27' W 014°51'019.9
2019-Sep-20 00:00N 30°26' W 014°51'1020.1
2019-Sep-19 23:30N 30°18' W 014°57'1020.0
2019-Sep-19 22:59N 30°09' W 015°03'1120.0
2019-Sep-19 22:26N 29°59' W 015°09'3 6.2
2019-Sep-19 22:00N 30°00' W 015°06'12407.7 360 / 131018.410.8 22.518.623.0
2019-Sep-19 21:58N 29°51' W 015°14'919.8
2019-Sep-19 21:30N 29°43' W 015°19'3119.9
2019-Sep-19 19:57N 29°16' W 015°36'1320.2
2019-Sep-19 19:17N 29°04' W 015°44'620.2
2019-Sep-19 19:00N 28°59' W 015°47'1019.2
2019-Sep-19 18:30N 28°51' W 015°52'1019.0
2019-Sep-19 18:00N 28°42' W 015°58'918.4
2019-Sep-19 17:30N 28°35' W 016°03'815.3
2019-Sep-19 17:00N 28°28' W 016°08'510.5
2019-Sep-19 16:31N 28°29' W 016°14'1 1.0
2019-Sep-19 15:58N 28°29' W 016°14'0 0.0
2019-Sep-19 15:25N 28°29' W 016°14'0 0.0
2019-Sep-19 14:58N 28°29' W 016°14'0 0.0
2019-Sep-19 14:28N 28°29' W 016°14'0 0.0
2019-Sep-19 13:58N 28°29' W 016°14'0 0.0
2019-Sep-19 13:28N 28°29' W 016°14'0 0.0
2019-Sep-19 12:58N 28°29' W 016°14'0 0.0
2019-Sep-19 12:28N 28°29' W 016°14'0 0.0
2019-Sep-19 11:58N 28°29' W 016°14'0 0.0
2019-Sep-19 11:28N 28°29' W 016°14'0 0.0
2019-Sep-19 10:58N 28°29' W 016°14'0 0.0
2019-Sep-19 10:28N 28°29' W 016°14'0 0.0
2019-Sep-19 09:58N 28°29' W 016°14'0 0.0
2019-Sep-19 09:28N 28°29' W 016°14'0 0.0
2019-Sep-19 08:58N 28°29' W 016°14'0 0.0
2019-Sep-19 08:28N 28°29' W 016°14'0 0.0
2019-Sep-19 07:58N 28°29' W 016°14'0 0.0
2019-Sep-19 07:28N 28°29' W 016°14'0 0.0
2019-Sep-19 06:58N 28°29' W 016°14'0 0.7
2019-Sep-19 06:30N 28°29' W 016°14'2 3.7
2019-Sep-19 06:00N 28°28' W 016°13'510.6
2019-Sep-19 05:30N 28°29' W 016°07'611.1
2019-Sep-19 05:00N 28°34' W 016°04'611.0
2019-Sep-19 04:30N 28°39' W 016°07'1811.8
2019-Sep-19 02:56N 28°39' W 016°28'3 3.7
2019-Sep-19 02:00N 28°36' W 016°30'154 5.5 050 / 151017.010.8 22.518.623.0
2019-Sep-17 22:00N 31°06' W 017°12'245 9.8 060 / 41018.910.8 23.018.323.4
2019-Sep-16 21:00N 34°42' W 014°54'19918.1 320 / 101019.510.8 21.519.122.3
2019-Sep-16 10:00N 37°30' W 012°42'7119.0 300 / 81019.510.8 21.018.620.2
2019-Sep-16 06:15N 38°31' W 011°57'518.0
2019-Sep-16 05:58N 38°36' W 011°53'1318.4
2019-Sep-16 05:15N 38°47' W 011°44'1018.4
2019-Sep-16 04:43N 38°55' W 011°38'818.6
2019-Sep-16 04:19N 39°02' W 011°32'618.6
2019-Sep-16 04:00N 39°06' W 011°29'918.8
2019-Sep-16 03:30N 39°14' W 011°22'918.8
2019-Sep-16 03:00N 39°22' W 011°16'918.8
2019-Sep-16 02:30N 39°30' W 011°09'918.9
2019-Sep-16 02:00N 39°38' W 011°03'918.6
2019-Sep-16 01:31N 39°46' W 010°56'918.3
2019-Sep-16 01:00N 39°54' W 010°50'918.3
2019-Sep-16 00:30N 40°02' W 010°44'918.3
2019-Sep-16 00:00N 40°09' W 010°37'918.2
2019-Sep-15 23:30N 40°17' W 010°31'1818.6
2019-Sep-15 22:32N 40°33' W 010°19'2218.5
2019-Sep-15 21:20N 40°51' W 010°02'123 6.0
2019-Sep-15 01:00N 42°54' W 010°06'7324.2 330 / 351020.110.8 18.016.316.0
2019-Sep-14 22:00N 44°00' W 009°24'19018.3 050 / 221024.410.8 20.518.918.8
2019-Sep-14 11:35N 46°43' W 007°05'220.4
2019-Sep-14 11:30N 46°45' W 007°04'1220.7
2019-Sep-14 10:56N 46°55' W 006°55'920.5
2019-Sep-14 10:31N 47°02' W 006°48'1020.2
2019-Sep-14 10:00N 47°11' W 006°40'1020.6
2019-Sep-14 09:30N 47°20' W 006°32'1020.8
2019-Sep-14 09:01N 47°28' W 006°24'1121.8
2019-Sep-14 08:31N 47°38' W 006°15'1121.6
2019-Sep-14 08:00N 47°47' W 006°07'1121.7
2019-Sep-14 07:30N 47°56' W 005°58'1121.5
2019-Sep-14 07:00N 48°05' W 005°50'1021.2
2019-Sep-14 06:31N 48°14' W 005°41'1020.7
2019-Sep-14 06:00N 48°23' W 005°33'1020.2
2019-Sep-14 05:31N 48°31' W 005°24'1019.4
2019-Sep-14 05:01N 48°38' W 005°15'1019.0
2019-Sep-14 04:30N 48°45' W 005°04'918.8
2019-Sep-14 04:00N 48°51' W 004°53'918.7
2019-Sep-14 03:30N 48°56' W 004°41'1019.1
2019-Sep-14 03:00N 49°02' W 004°29'1019.7
2019-Sep-14 02:31N 49°08' W 004°18'1020.2
2019-Sep-14 02:00N 49°14' W 004°05'1020.7
2019-Sep-14 01:31N 49°20' W 003°53'1121.5
2019-Sep-14 01:01N 49°27' W 003°40'1121.7
2019-Sep-14 00:30N 49°35' W 003°28'1021.5
2019-Sep-14 00:01N 49°43' W 003°17'1121.9
2019-Sep-13 23:31N 49°50' W 003°05'1121.4
2019-Sep-13 23:01N 49°58' W 002°53'1120.9
2019-Sep-13 22:30N 50°01' W 002°37'1020.0
2019-Sep-13 22:01N 50°03' W 002°22'1019.1
2019-Sep-13 21:31N 50°10' W 002°11'918.4
2019-Sep-13 21:00N 50°13' W 001°58'917.9
2019-Sep-13 20:30N 50°18' W 001°45'917.8
2019-Sep-13 20:01N 50°22' W 001°33'917.6
2019-Sep-13 19:31N 50°26' W 001°21'917.2
2019-Sep-13 19:00N 50°29' W 001°08'815.9
2019-Sep-13 18:31N 50°35' W 000°60'714.8
2019-Sep-13 18:00N 50°42' W 000°58'713.4
2019-Sep-13 17:30N 50°45' W 001°07'715.0
2019-Sep-13 17:00N 50°48' W 001°19'4 8.7
2019-Sep-13 16:30N 50°52' W 001°21'3 4.7
2019-Sep-13 15:58N 50°53' W 001°24'0 0.0
2019-Sep-13 15:28N 50°53' W 001°24'0 0.0
2019-Sep-13 14:58N 50°53' W 001°24'0 0.0
2019-Sep-13 14:28N 50°53' W 001°24'0 0.0
2019-Sep-13 13:58N 50°53' W 001°24'0 0.0
2019-Sep-13 13:28N 50°53' W 001°24'0 0.0
2019-Sep-13 12:58N 50°53' W 001°24'0 0.0
2019-Sep-13 12:28N 50°53' W 001°24'0 0.0
2019-Sep-13 11:58N 50°53' W 001°24'0 0.0
2019-Sep-13 11:28N 50°53' W 001°24'0 0.0
2019-Sep-13 10:55N 50°53' W 001°24'0 0.0
2019-Sep-13 10:28N 50°53' W 001°24'0 0.0
2019-Sep-13 09:55N 50°53' W 001°24'0 0.0
2019-Sep-13 09:28N 50°53' W 001°24'0 0.0
2019-Sep-13 08:58N 50°53' W 001°24'0 0.0
2019-Sep-13 08:28N 50°53' W 001°24'0 0.0
2019-Sep-13 07:58N 50°53' W 001°24'0 0.0
2019-Sep-13 07:28N 50°53' W 001°24'0 0.0
2019-Sep-13 06:58N 50°53' W 001°24'0 0.0
2019-Sep-13 06:28N 50°53' W 001°24'0 0.0
2019-Sep-13 05:58N 50°53' W 001°24'0 0.5
2019-Sep-13 05:31N 50°53' W 001°24'3 6.0
2019-Sep-13 05:00N 50°51' W 001°21'4 8.4
2019-Sep-13 04:30N 50°47' W 001°19'612.9
2019-Sep-13 04:01N 50°46' W 001°09'815.2
2019-Sep-13 03:30N 50°42' W 000°58'612.0
2019-Sep-13 03:01N 50°37' W 000°53'1818.2
2019-Sep-13 02:01N 50°34' W 000°24'1620.7
2019-Sep-13 01:13N 50°33' E 000°01'721.7
2019-Sep-13 00:54N 50°34' E 000°12'821.5
2019-Sep-13 00:31N 50°37' E 000°25'1020.8
2019-Sep-13 00:01N 50°40' E 000°40'1020.0
2019-Sep-12 23:30N 50°45' E 000°54'1019.1
2019-Sep-12 23:00N 50°51' E 001°06'918.7
2019-Sep-12 22:31N 50°56' E 001°19'918.3
2019-Sep-12 22:00N 51°03' E 001°28'918.8
2019-Sep-12 21:31N 51°09' E 001°40'1019.1
2019-Sep-12 21:01N 51°16' E 001°49'1121.1
2019-Sep-12 20:30N 51°26' E 001°54'1121.7
2019-Sep-12 20:01N 51°36' E 002°00'1122.1
2019-Sep-12 19:30N 51°46' E 002°07'1121.8
2019-Sep-12 19:00N 51°57' E 002°12'1121.6
2019-Sep-12 18:30N 52°08' E 002°16'1121.2
2019-Sep-12 18:00N 52°18' E 002°19'1020.8
2019-Sep-12 17:30N 52°28' E 002°22'1020.2
2019-Sep-12 17:00N 52°38' E 002°25'1019.2
2019-Sep-12 16:30N 52°47' E 002°28'1019.4
2019-Sep-12 16:00N 52°57' E 002°31'919.0
2019-Sep-12 15:30N 53°06' E 002°35'1119.1
2019-Sep-12 14:57N 53°16' E 002°41'2019.1
2019-Sep-12 13:54N 53°35' E 002°52'1719.1
2019-Sep-12 12:59N 53°52' E 003°00'18719.5
2019-Sep-12 03:23N 56°58' E 003°39'919.9
2019-Sep-12 02:55N 57°07' E 003°41'919.8
2019-Sep-12 02:28N 57°16' E 003°42'818.5
2019-Sep-12 02:00N 57°25' E 003°43'171.1
2019-Sep-12 02:00N 57°24' E 003°42'918.1 240 / 171014.510.8 16.014.315.0
2019-Sep-12 01:30N 57°33' E 003°45'1019.7
2019-Sep-12 01:00N 57°43' E 003°47'1020.2
2019-Sep-12 00:30N 57°52' E 003°49'1020.1
2019-Sep-11 23:59N 58°03' E 003°51'1020.3
2019-Sep-11 23:30N 58°13' E 003°53'1020.1
2019-Sep-11 23:00N 58°23' E 003°54'1020.3
2019-Sep-11 22:30N 58°33' E 003°56'1020.5
2019-Sep-11 22:00N 58°43' E 003°58'1019.9
2019-Sep-11 21:30N 58°53' E 004°00'1019.7
2019-Sep-11 21:00N 59°03' E 004°02'1019.3
2019-Sep-11 20:29N 59°13' E 004°02'1019.2
2019-Sep-11 20:00N 59°22' E 004°02'918.9
2019-Sep-11 19:30N 59°32' E 004°02'918.6
2019-Sep-11 19:00N 59°41' E 004°02'918.4
2019-Sep-11 18:30N 59°50' E 004°02'918.7
2019-Sep-11 18:00N 59°59' E 004°02'918.7
2019-Sep-11 17:30N 60°09' E 004°01'918.8
2019-Sep-11 17:00N 60°18' E 004°01'12864.9
2019-Sep-11 17:00N 60°06' E 004°00'2142.5 270 / 301004.110.8 14.012.215.0
2019-Sep-11 16:30N 60°26' E 004°10'918.9
2019-Sep-11 16:00N 60°34' E 004°21'918.0
2019-Sep-11 15:30N 60°41' E 004°31'714.6
2019-Sep-11 15:00N 60°44' E 004°46'815.9
2019-Sep-11 14:30N 60°37' E 004°53'1019.3
2019-Sep-11 14:00N 60°28' E 005°01'713.7
2019-Sep-11 13:31N 60°23' E 005°11'4 7.4
2019-Sep-11 13:00N 60°23' E 005°18'0 0.0
2019-Sep-11 12:30N 60°23' E 005°18'0 0.0
2019-Sep-11 12:00N 60°23' E 005°18'0 0.0
2019-Sep-11 11:30N 60°23' E 005°18'0 0.0
2019-Sep-11 11:00N 60°23' E 005°18'0 0.0
2019-Sep-11 10:30N 60°23' E 005°18'0 0.0
2019-Sep-11 10:00N 60°23' E 005°18'0 0.0
2019-Sep-11 09:30N 60°23' E 005°18'0 0.0
2019-Sep-11 09:00N 60°23' E 005°18'0 0.0
2019-Sep-11 08:30N 60°23' E 005°18'0 0.0
2019-Sep-11 08:00N 60°23' E 005°18'0 0.0
2019-Sep-11 07:30N 60°23' E 005°18'0 0.0
2019-Sep-11 07:00N 60°23' E 005°18'0 0.0
2019-Sep-11 06:30N 60°23' E 005°18'0 0.0
2019-Sep-11 06:00N 60°23' E 005°18'0 0.0
2019-Sep-11 05:30N 60°23' E 005°18'0 0.0
2019-Sep-11 05:00N 60°23' E 005°18'0 0.4
2019-Sep-11 04:30N 60°24' E 005°18'1 2.4
2019-Sep-11 04:00N 60°24' E 005°16'4 8.0
2019-Sep-11 03:30N 60°24' E 005°08'713.7
2019-Sep-11 03:00N 60°29' E 004°59'714.9
2019-Sep-11 02:30N 60°36' E 004°54'713.5
2019-Sep-11 02:01N 60°42' E 004°47'815.9
2019-Sep-11 01:30N 60°46' E 004°33'714.6
2019-Sep-11 01:00N 60°52' E 004°25'715.0
2019-Sep-11 00:31N 60°59' E 004°21'815.2
2019-Sep-11 00:01N 61°07' E 004°16'815.5
2019-Sep-10 23:30N 61°14' E 004°11'815.8
2019-Sep-10 23:00N 61°22' E 004°07'815.4
2019-Sep-10 22:30N 61°29' E 004°05'815.6
2019-Sep-10 22:00N 61°37' E 004°04'  

Dump ship's entire track history